sensor_id;sensor_type;location;lat;lon;timestamp;temperature;humidity
831;DHT22;397;50.564;7.272;2023-06-24T00:00:43;17.80;99.90
831;DHT22;397;50.564;7.272;2023-06-24T00:03:10;17.70;99.90
831;DHT22;397;50.564;7.272;2023-06-24T00:05:40;17.70;99.90
831;DHT22;397;50.564;7.272;2023-06-24T00:08:07;17.60;99.90
831;DHT22;397;50.564;7.272;2023-06-24T00:10:35;17.60;99.90
831;DHT22;397;50.564;7.272;2023-06-24T00:13:02;17.50;99.90
831;DHT22;397;50.564;7.272;2023-06-24T00:15:30;17.60;99.90
831;DHT22;397;50.564;7.272;2023-06-24T00:17:57;17.60;99.90
831;DHT22;397;50.564;7.272;2023-06-24T00:20:26;17.60;99.90
831;DHT22;397;50.564;7.272;2023-06-24T00:22:54;17.70;99.90
831;DHT22;397;50.564;7.272;2023-06-24T00:25:21;17.60;99.90
831;DHT22;397;50.564;7.272;2023-06-24T00:27:49;17.50;99.90
831;DHT22;397;50.564;7.272;2023-06-24T00:30:16;17.50;99.90
831;DHT22;397;50.564;7.272;2023-06-24T00:32:44;17.50;99.90
831;DHT22;397;50.564;7.272;2023-06-24T00:35:11;17.60;99.90
831;DHT22;397;50.564;7.272;2023-06-24T00:37:39;17.70;99.90
831;DHT22;397;50.564;7.272;2023-06-24T00:40:09;17.70;99.90
831;DHT22;397;50.564;7.272;2023-06-24T00:42:45;17.70;99.90
831;DHT22;397;50.564;7.272;2023-06-24T00:45:13;17.80;99.90
831;DHT22;397;50.564;7.272;2023-06-24T00:47:43;17.70;99.90
831;DHT22;397;50.564;7.272;2023-06-24T00:50:11;17.70;99.90
831;DHT22;397;50.564;7.272;2023-06-24T00:52:38;17.70;99.90
831;DHT22;397;50.564;7.272;2023-06-24T00:55:11;17.80;99.90
831;DHT22;397;50.564;7.272;2023-06-24T00:57:43;17.60;99.90
831;DHT22;397;50.564;7.272;2023-06-24T01:00:12;17.70;99.90
831;DHT22;397;50.564;7.272;2023-06-24T01:02:41;17.70;99.90
831;DHT22;397;50.564;7.272;2023-06-24T01:05:11;17.70;99.90
831;DHT22;397;50.564;7.272;2023-06-24T01:07:39;17.80;99.90
831;DHT22;397;50.564;7.272;2023-06-24T01:10:08;17.70;99.90
831;DHT22;397;50.564;7.272;2023-06-24T01:12:38;17.70;99.90
831;DHT22;397;50.564;7.272;2023-06-24T01:15:07;17.50;99.90
831;DHT22;397;50.564;7.272;2023-06-24T01:17:39;17.30;99.90
831;DHT22;397;50.564;7.272;2023-06-24T01:23:55;17.30;99.90
831;DHT22;397;50.564;7.272;2023-06-24T01:25:59;17.20;99.90
831;DHT22;397;50.564;7.272;2023-06-24T01:34:10;17.10;99.90
831;DHT22;397;50.564;7.272;2023-06-24T01:36:37;17.00;99.90
831;DHT22;397;50.564;7.272;2023-06-24T01:39:08;17.10;99.90
831;DHT22;397;50.564;7.272;2023-06-24T01:41:41;17.20;99.90
831;DHT22;397;50.564;7.272;2023-06-24T01:44:12;17.20;99.90
831;DHT22;397;50.564;7.272;2023-06-24T01:46:41;17.30;99.90
831;DHT22;397;50.564;7.272;2023-06-24T01:49:12;17.20;99.90
831;DHT22;397;50.564;7.272;2023-06-24T01:51:41;17.20;99.90
831;DHT22;397;50.564;7.272;2023-06-24T01:54:11;17.00;99.90
831;DHT22;397;50.564;7.272;2023-06-24T01:56:42;16.90;99.90
831;DHT22;397;50.564;7.272;2023-06-24T01:59:11;16.90;99.90
831;DHT22;397;50.564;7.272;2023-06-24T02:01:39;16.80;99.90
831;DHT22;397;50.564;7.272;2023-06-24T02:04:08;16.80;99.90
831;DHT22;397;50.564;7.272;2023-06-24T02:06:37;16.90;99.90
831;DHT22;397;50.564;7.272;2023-06-24T02:09:07;17.00;99.90
831;DHT22;397;50.564;7.272;2023-06-24T02:11:35;17.00;99.90
831;DHT22;397;50.564;7.272;2023-06-24T02:14:04;16.90;99.90
831;DHT22;397;50.564;7.272;2023-06-24T02:16:33;16.90;99.90
831;DHT22;397;50.564;7.272;2023-06-24T02:19:02;16.90;99.90
831;DHT22;397;50.564;7.272;2023-06-24T02:21:33;16.90;99.90
831;DHT22;397;50.564;7.272;2023-06-24T02:24:00;16.90;99.90
831;DHT22;397;50.564;7.272;2023-06-24T02:26:28;16.90;99.90
831;DHT22;397;50.564;7.272;2023-06-24T02:28:56;16.80;99.90
831;DHT22;397;50.564;7.272;2023-06-24T02:31:24;16.90;99.90
831;DHT22;397;50.564;7.272;2023-06-24T02:33:52;16.90;99.90
831;DHT22;397;50.564;7.272;2023-06-24T02:36:19;16.90;99.90
831;DHT22;397;50.564;7.272;2023-06-24T02:38:48;16.90;99.90
831;DHT22;397;50.564;7.272;2023-06-24T02:41:15;16.90;99.90
831;DHT22;397;50.564;7.272;2023-06-24T02:43:43;16.70;99.90
831;DHT22;397;50.564;7.272;2023-06-24T02:46:11;16.70;99.90
831;DHT22;397;50.564;7.272;2023-06-24T02:48:39;16.80;99.90
831;DHT22;397;50.564;7.272;2023-06-24T02:51:08;16.70;99.90
831;DHT22;397;50.564;7.272;2023-06-24T02:53:38;16.70;99.90
831;DHT22;397;50.564;7.272;2023-06-24T02:56:07;16.80;99.90
831;DHT22;397;50.564;7.272;2023-06-24T02:58:37;16.80;99.90
831;DHT22;397;50.564;7.272;2023-06-24T03:01:06;16.90;99.90
831;DHT22;397;50.564;7.272;2023-06-24T03:03:35;16.90;99.90
831;DHT22;397;50.564;7.272;2023-06-24T03:06:03;16.80;99.90
831;DHT22;397;50.564;7.272;2023-06-24T03:08:31;16.80;99.90
831;DHT22;397;50.564;7.272;2023-06-24T03:10:59;16.70;99.90
831;DHT22;397;50.564;7.272;2023-06-24T03:13:26;16.70;99.90
831;DHT22;397;50.564;7.272;2023-06-24T03:15:54;16.50;99.90
831;DHT22;397;50.564;7.272;2023-06-24T03:18:21;16.40;99.90
831;DHT22;397;50.564;7.272;2023-06-24T03:20:49;16.30;99.90
831;DHT22;397;50.564;7.272;2023-06-24T03:23:16;16.30;99.90
831;DHT22;397;50.564;7.272;2023-06-24T03:25:44;16.30;99.90
831;DHT22;397;50.564;7.272;2023-06-24T03:28:11;16.40;99.90
831;DHT22;397;50.564;7.272;2023-06-24T03:30:39;16.60;99.90
831;DHT22;397;50.564;7.272;2023-06-24T03:33:06;16.60;99.90
831;DHT22;397;50.564;7.272;2023-06-24T03:35:34;16.60;99.90
831;DHT22;397;50.564;7.272;2023-06-24T03:38:01;16.50;99.90
831;DHT22;397;50.564;7.272;2023-06-24T03:40:29;16.50;99.90
831;DHT22;397;50.564;7.272;2023-06-24T03:42:57;16.50;99.90
831;DHT22;397;50.564;7.272;2023-06-24T03:45:24;16.60;99.90
831;DHT22;397;50.564;7.272;2023-06-24T03:47:52;16.70;99.90
831;DHT22;397;50.564;7.272;2023-06-24T03:50:19;16.70;99.90
831;DHT22;397;50.564;7.272;2023-06-24T03:52:47;16.80;99.90
831;DHT22;397;50.564;7.272;2023-06-24T03:55:14;17.00;99.90
831;DHT22;397;50.564;7.272;2023-06-24T03:57:42;17.00;99.90
831;DHT22;397;50.564;7.272;2023-06-24T04:00:10;17.10;99.90
831;DHT22;397;50.564;7.272;2023-06-24T04:02:45;17.10;99.90
831;DHT22;397;50.564;7.272;2023-06-24T04:05:13;17.00;99.90
831;DHT22;397;50.564;7.272;2023-06-24T04:07:41;17.20;99.90
831;DHT22;397;50.564;7.272;2023-06-24T04:10:10;17.60;99.90
831;DHT22;397;50.564;7.272;2023-06-24T04:12:38;18.00;99.90
831;DHT22;397;50.564;7.272;2023-06-24T04:15:06;18.00;99.90
831;DHT22;397;50.564;7.272;2023-06-24T04:17:33;17.40;99.90
831;DHT22;397;50.564;7.272;2023-06-24T04:20:01;17.40;99.90
831;DHT22;397;50.564;7.272;2023-06-24T04:22:30;17.60;99.90
831;DHT22;397;50.564;7.272;2023-06-24T04:24:58;18.20;99.90
831;DHT22;397;50.564;7.272;2023-06-24T04:27:25;18.40;99.90
831;DHT22;397;50.564;7.272;2023-06-24T04:29:53;18.40;99.90
831;DHT22;397;50.564;7.272;2023-06-24T04:32:20;18.30;99.90
831;DHT22;397;50.564;7.272;2023-06-24T04:34:48;18.40;99.90
831;DHT22;397;50.564;7.272;2023-06-24T04:37:16;18.70;99.90
831;DHT22;397;50.564;7.272;2023-06-24T04:39:44;19.60;99.90
831;DHT22;397;50.564;7.272;2023-06-24T04:42:12;19.90;99.90
831;DHT22;397;50.564;7.272;2023-06-24T04:44:41;20.10;99.90
831;DHT22;397;50.564;7.272;2023-06-24T04:47:08;20.50;99.90
831;DHT22;397;50.564;7.272;2023-06-24T04:49:36;20.70;99.90
831;DHT22;397;50.564;7.272;2023-06-24T04:52:04;21.10;99.90
831;DHT22;397;50.564;7.272;2023-06-24T04:54:33;20.80;99.90
831;DHT22;397;50.564;7.272;2023-06-24T04:57:00;21.10;99.90
831;DHT22;397;50.564;7.272;2023-06-24T04:59:28;21.40;99.90
831;DHT22;397;50.564;7.272;2023-06-24T05:01:55;21.40;99.90
831;DHT22;397;50.564;7.272;2023-06-24T05:04:23;21.90;99.90
831;DHT22;397;50.564;7.272;2023-06-24T05:06:50;22.20;99.90
831;DHT22;397;50.564;7.272;2023-06-24T05:09:18;23.10;99.90
831;DHT22;397;50.564;7.272;2023-06-24T05:11:45;23.20;99.90
831;DHT22;397;50.564;7.272;2023-06-24T05:14:13;23.10;99.90
831;DHT22;397;50.564;7.272;2023-06-24T05:16:40;23.30;99.90
831;DHT22;397;50.564;7.272;2023-06-24T05:19:08;23.10;99.90
831;DHT22;397;50.564;7.272;2023-06-24T05:21:35;22.60;99.90
831;DHT22;397;50.564;7.272;2023-06-24T05:24:03;23.60;99.90
831;DHT22;397;50.564;7.272;2023-06-24T05:26:31;24.20;99.90
831;DHT22;397;50.564;7.272;2023-06-24T05:28:58;24.70;99.90
831;DHT22;397;50.564;7.272;2023-06-24T05:31:26;24.00;99.90
831;DHT22;397;50.564;7.272;2023-06-24T05:33:53;24.60;99.90
831;DHT22;397;50.564;7.272;2023-06-24T05:36:21;24.80;99.90
831;DHT22;397;50.564;7.272;2023-06-24T05:38:48;25.70;99.90
831;DHT22;397;50.564;7.272;2023-06-24T05:41:16;25.90;99.90
831;DHT22;397;50.564;7.272;2023-06-24T05:43:43;26.70;99.90
831;DHT22;397;50.564;7.272;2023-06-24T05:46:11;25.50;99.90
831;DHT22;397;50.564;7.272;2023-06-24T05:48:39;25.70;99.90
831;DHT22;397;50.564;7.272;2023-06-24T05:51:08;25.80;99.90
831;DHT22;397;50.564;7.272;2023-06-24T05:53:36;26.50;99.90
831;DHT22;397;50.564;7.272;2023-06-24T05:56:03;26.50;99.90
831;DHT22;397;50.564;7.272;2023-06-24T05:58:31;26.30;99.90
831;DHT22;397;50.564;7.272;2023-06-24T06:00:58;25.40;99.90
831;DHT22;397;50.564;7.272;2023-06-24T06:03:27;25.50;99.90
831;DHT22;397;50.564;7.272;2023-06-24T06:05:55;26.10;99.90
831;DHT22;397;50.564;7.272;2023-06-24T06:08:22;25.80;99.90
831;DHT22;397;50.564;7.272;2023-06-24T06:10:50;26.00;99.90
831;DHT22;397;50.564;7.272;2023-06-24T06:13:17;25.80;99.90
831;DHT22;397;50.564;7.272;2023-06-24T06:15:45;25.30;99.90
831;DHT22;397;50.564;7.272;2023-06-24T06:18:12;25.20;99.90
831;DHT22;397;50.564;7.272;2023-06-24T06:20:40;25.40;99.90
831;DHT22;397;50.564;7.272;2023-06-24T06:23:08;25.50;99.90
831;DHT22;397;50.564;7.272;2023-06-24T06:25:36;25.80;99.90
831;DHT22;397;50.564;7.272;2023-06-24T06:28:04;25.70;99.90
831;DHT22;397;50.564;7.272;2023-06-24T06:30:32;26.20;99.90
831;DHT22;397;50.564;7.272;2023-06-24T06:32:59;25.80;99.90
831;DHT22;397;50.564;7.272;2023-06-24T06:35:27;25.10;99.90
831;DHT22;397;50.564;7.272;2023-06-24T06:37:54;25.10;99.90
831;DHT22;397;50.564;7.272;2023-06-24T06:40:22;24.40;99.90
831;DHT22;397;50.564;7.272;2023-06-24T06:42:50;25.40;99.90
831;DHT22;397;50.564;7.272;2023-06-24T06:45:18;24.80;99.90
831;DHT22;397;50.564;7.272;2023-06-24T06:47:46;25.30;99.90
831;DHT22;397;50.564;7.272;2023-06-24T06:50:13;25.60;99.90
831;DHT22;397;50.564;7.272;2023-06-24T06:52:41;25.70;99.90
831;DHT22;397;50.564;7.272;2023-06-24T06:55:09;25.50;99.90
831;DHT22;397;50.564;7.272;2023-06-24T06:57:36;25.80;99.90
831;DHT22;397;50.564;7.272;2023-06-24T07:00:05;25.50;99.90
831;DHT22;397;50.564;7.272;2023-06-24T07:02:32;25.40;99.90
831;DHT22;397;50.564;7.272;2023-06-24T07:05:00;25.10;99.90
831;DHT22;397;50.564;7.272;2023-06-24T07:07:27;24.80;99.90
831;DHT22;397;50.564;7.272;2023-06-24T07:09:55;24.80;99.90
831;DHT22;397;50.564;7.272;2023-06-24T07:12:22;24.90;99.90
831;DHT22;397;50.564;7.272;2023-06-24T07:14:51;25.20;99.90
831;DHT22;397;50.564;7.272;2023-06-24T07:17:18;25.20;99.90
831;DHT22;397;50.564;7.272;2023-06-24T07:19:46;24.90;99.90
831;DHT22;397;50.564;7.272;2023-06-24T07:22:14;25.10;99.90
831;DHT22;397;50.564;7.272;2023-06-24T07:24:42;25.10;99.90
831;DHT22;397;50.564;7.272;2023-06-24T07:27:09;25.40;99.90
831;DHT22;397;50.564;7.272;2023-06-24T07:29:37;24.90;99.90
831;DHT22;397;50.564;7.272;2023-06-24T07:32:05;25.00;99.90
831;DHT22;397;50.564;7.272;2023-06-24T07:34:34;25.40;99.90
831;DHT22;397;50.564;7.272;2023-06-24T07:37:01;25.20;99.90
831;DHT22;397;50.564;7.272;2023-06-24T07:39:29;25.10;99.90
831;DHT22;397;50.564;7.272;2023-06-24T07:41:56;24.90;99.90
831;DHT22;397;50.564;7.272;2023-06-24T07:44:24;25.00;99.90
831;DHT22;397;50.564;7.272;2023-06-24T07:46:51;24.90;99.90
831;DHT22;397;50.564;7.272;2023-06-24T07:49:19;24.90;99.90
831;DHT22;397;50.564;7.272;2023-06-24T07:51:46;24.90;99.90
831;DHT22;397;50.564;7.272;2023-06-24T07:54:14;25.00;99.90
831;DHT22;397;50.564;7.272;2023-06-24T07:56:42;25.10;99.90
831;DHT22;397;50.564;7.272;2023-06-24T07:59:09;25.40;99.90
831;DHT22;397;50.564;7.272;2023-06-24T08:01:37;25.70;99.90
831;DHT22;397;50.564;7.272;2023-06-24T08:04:04;25.70;99.90
831;DHT22;397;50.564;7.272;2023-06-24T08:06:32;25.70;99.90
831;DHT22;397;50.564;7.272;2023-06-24T08:08:59;25.50;99.90
831;DHT22;397;50.564;7.272;2023-06-24T08:11:27;25.60;99.90
831;DHT22;397;50.564;7.272;2023-06-24T08:13:54;25.70;99.90
831;DHT22;397;50.564;7.272;2023-06-24T08:16:22;25.70;99.90
831;DHT22;397;50.564;7.272;2023-06-24T08:18:49;25.90;99.90
831;DHT22;397;50.564;7.272;2023-06-24T08:21:17;25.80;99.90
831;DHT22;397;50.564;7.272;2023-06-24T08:23:45;26.10;99.90
831;DHT22;397;50.564;7.272;2023-06-24T08:26:13;25.90;99.90
831;DHT22;397;50.564;7.272;2023-06-24T08:28:40;25.90;99.90
831;DHT22;397;50.564;7.272;2023-06-24T08:31:08;25.90;99.90
831;DHT22;397;50.564;7.272;2023-06-24T08:33:35;26.00;99.90
831;DHT22;397;50.564;7.272;2023-06-24T08:36:04;25.90;99.90
831;DHT22;397;50.564;7.272;2023-06-24T08:38:35;25.90;99.90
831;DHT22;397;50.564;7.272;2023-06-24T08:41:02;26.00;99.90
831;DHT22;397;50.564;7.272;2023-06-24T08:43:30;26.10;99.90
831;DHT22;397;50.564;7.272;2023-06-24T08:45:58;26.10;99.90
831;DHT22;397;50.564;7.272;2023-06-24T08:48:26;26.10;99.90
831;DHT22;397;50.564;7.272;2023-06-24T08:50:56;26.30;99.90
831;DHT22;397;50.564;7.272;2023-06-24T08:53:25;26.40;99.90
831;DHT22;397;50.564;7.272;2023-06-24T08:55:54;26.20;99.90
831;DHT22;397;50.564;7.272;2023-06-24T08:58:23;26.00;99.90
831;DHT22;397;50.564;7.272;2023-06-24T09:00:51;26.10;99.90
831;DHT22;397;50.564;7.272;2023-06-24T09:03:18;26.40;99.90
831;DHT22;397;50.564;7.272;2023-06-24T09:05:46;26.70;99.90
831;DHT22;397;50.564;7.272;2023-06-24T09:08:14;26.80;99.90
831;DHT22;397;50.564;7.272;2023-06-24T09:10:44;27.00;99.90
831;DHT22;397;50.564;7.272;2023-06-24T09:13:12;26.80;99.90
831;DHT22;397;50.564;7.272;2023-06-24T09:15:39;27.10;99.90
831;DHT22;397;50.564;7.272;2023-06-24T09:18:07;27.20;99.90
831;DHT22;397;50.564;7.272;2023-06-24T09:20:40;27.40;99.90
831;DHT22;397;50.564;7.272;2023-06-24T09:23:07;27.20;99.90
831;DHT22;397;50.564;7.272;2023-06-24T09:25:34;27.20;99.20
831;DHT22;397;50.564;7.272;2023-06-24T09:28:03;27.20;99.70
831;DHT22;397;50.564;7.272;2023-06-24T09:30:30;27.40;99.90
831;DHT22;397;50.564;7.272;2023-06-24T09:32:58;27.40;97.70
831;DHT22;397;50.564;7.272;2023-06-24T09:35:26;27.30;99.20
831;DHT22;397;50.564;7.272;2023-06-24T09:37:55;27.50;97.40
831;DHT22;397;50.564;7.272;2023-06-24T09:40:23;27.40;97.20
831;DHT22;397;50.564;7.272;2023-06-24T09:42:57;27.20;95.40
831;DHT22;397;50.564;7.272;2023-06-24T09:45:28;27.10;96.80
831;DHT22;397;50.564;7.272;2023-06-24T09:47:57;27.30;97.10
831;DHT22;397;50.564;7.272;2023-06-24T09:50:25;27.30;97.70
831;DHT22;397;50.564;7.272;2023-06-24T09:52:53;27.20;97.10
831;DHT22;397;50.564;7.272;2023-06-24T09:55:22;27.30;97.10
831;DHT22;397;50.564;7.272;2023-06-24T09:57:51;27.30;98.30
831;DHT22;397;50.564;7.272;2023-06-24T10:00:20;27.60;97.80
831;DHT22;397;50.564;7.272;2023-06-24T10:02:51;27.70;97.70
831;DHT22;397;50.564;7.272;2023-06-24T10:05:18;27.80;96.30
831;DHT22;397;50.564;7.272;2023-06-24T10:07:46;27.80;97.40
831;DHT22;397;50.564;7.272;2023-06-24T10:10:14;28.00;96.60
831;DHT22;397;50.564;7.272;2023-06-24T10:12:42;27.90;94.70
831;DHT22;397;50.564;7.272;2023-06-24T10:15:10;28.10;94.90
831;DHT22;397;50.564;7.272;2023-06-24T10:17:38;28.10;94.50
831;DHT22;397;50.564;7.272;2023-06-24T10:20:06;28.10;94.90
831;DHT22;397;50.564;7.272;2023-06-24T10:22:34;28.10;93.90
831;DHT22;397;50.564;7.272;2023-06-24T10:25:06;28.10;92.90
831;DHT22;397;50.564;7.272;2023-06-24T10:27:40;28.10;92.70
831;DHT22;397;50.564;7.272;2023-06-24T10:30:16;27.90;94.30
831;DHT22;397;50.564;7.272;2023-06-24T10:32:42;28.10;95.70
831;DHT22;397;50.564;7.272;2023-06-24T10:35:27;28.10;92.50
831;DHT22;397;50.564;7.272;2023-06-24T10:38:00;28.00;93.60
831;DHT22;397;50.564;7.272;2023-06-24T10:40:39;28.20;92.50
831;DHT22;397;50.564;7.272;2023-06-24T10:45:56;28.30;90.50
831;DHT22;397;50.564;7.272;2023-06-24T10:48:25;28.40;91.30
831;DHT22;397;50.564;7.272;2023-06-24T10:50:52;28.50;91.10
831;DHT22;397;50.564;7.272;2023-06-24T10:53:21;28.50;90.90
831;DHT22;397;50.564;7.272;2023-06-24T10:55:49;28.50;92.10
831;DHT22;397;50.564;7.272;2023-06-24T10:58:17;28.40;88.50
831;DHT22;397;50.564;7.272;2023-06-24T11:00:44;28.40;89.40
831;DHT22;397;50.564;7.272;2023-06-24T11:03:15;28.40;88.70
831;DHT22;397;50.564;7.272;2023-06-24T11:05:44;28.40;88.00
831;DHT22;397;50.564;7.272;2023-06-24T11:08:12;28.50;87.30
831;DHT22;397;50.564;7.272;2023-06-24T11:10:59;28.20;89.50
831;DHT22;397;50.564;7.272;2023-06-24T11:13:33;28.10;89.60
831;DHT22;397;50.564;7.272;2023-06-24T11:16:00;27.90;87.00
831;DHT22;397;50.564;7.272;2023-06-24T11:18:48;28.10;87.80
831;DHT22;397;50.564;7.272;2023-06-24T11:21:15;28.30;86.80
831;DHT22;397;50.564;7.272;2023-06-24T11:23:42;28.00;87.60
831;DHT22;397;50.564;7.272;2023-06-24T11:26:10;28.30;88.50
831;DHT22;397;50.564;7.272;2023-06-24T11:28:38;28.30;86.80
831;DHT22;397;50.564;7.272;2023-06-24T11:31:08;28.40;92.20
831;DHT22;397;50.564;7.272;2023-06-24T11:33:36;28.50;88.50
831;DHT22;397;50.564;7.272;2023-06-24T11:36:09;28.50;86.90
831;DHT22;397;50.564;7.272;2023-06-24T11:38:36;28.60;85.70
831;DHT22;397;50.564;7.272;2023-06-24T11:41:04;28.70;83.30
831;DHT22;397;50.564;7.272;2023-06-24T11:43:31;28.80;84.30
831;DHT22;397;50.564;7.272;2023-06-24T11:45:59;28.40;78.20
831;DHT22;397;50.564;7.272;2023-06-24T11:48:29;28.50;81.90
831;DHT22;397;50.564;7.272;2023-06-24T11:50:58;28.80;85.50
831;DHT22;397;50.564;7.272;2023-06-24T11:53:45;28.80;79.10
831;DHT22;397;50.564;7.272;2023-06-24T11:56:13;28.50;78.80
831;DHT22;397;50.564;7.272;2023-06-24T11:58:42;28.30;78.50
831;DHT22;397;50.564;7.272;2023-06-24T12:01:10;28.40;78.60
831;DHT22;397;50.564;7.272;2023-06-24T12:03:38;28.50;79.50
831;DHT22;397;50.564;7.272;2023-06-24T12:06:05;28.50;78.60
831;DHT22;397;50.564;7.272;2023-06-24T12:08:33;28.50;77.80
831;DHT22;397;50.564;7.272;2023-06-24T12:11:00;28.60;76.70
831;DHT22;397;50.564;7.272;2023-06-24T12:13:28;28.40;75.00
831;DHT22;397;50.564;7.272;2023-06-24T12:15:55;28.20;77.00
831;DHT22;397;50.564;7.272;2023-06-24T12:18:23;28.40;75.60
831;DHT22;397;50.564;7.272;2023-06-24T12:20:50;28.30;77.10
831;DHT22;397;50.564;7.272;2023-06-24T12:23:18;28.00;75.70
831;DHT22;397;50.564;7.272;2023-06-24T12:25:46;28.20;78.20
831;DHT22;397;50.564;7.272;2023-06-24T12:28:13;28.40;77.60
831;DHT22;397;50.564;7.272;2023-06-24T12:30:40;28.30;78.20
831;DHT22;397;50.564;7.272;2023-06-24T12:33:08;28.00;79.60
831;DHT22;397;50.564;7.272;2023-06-24T12:35:35;28.20;78.20
831;DHT22;397;50.564;7.272;2023-06-24T12:38:03;28.30;79.80
831;DHT22;397;50.564;7.272;2023-06-24T12:40:30;28.40;78.60
831;DHT22;397;50.564;7.272;2023-06-24T12:42:58;28.50;76.00
831;DHT22;397;50.564;7.272;2023-06-24T12:45:26;28.30;76.00
831;DHT22;397;50.564;7.272;2023-06-24T12:47:53;28.10;77.90
831;DHT22;397;50.564;7.272;2023-06-24T12:50:21;28.30;79.90
831;DHT22;397;50.564;7.272;2023-06-24T12:52:48;28.60;80.00
831;DHT22;397;50.564;7.272;2023-06-24T12:55:16;28.70;76.50
831;DHT22;397;50.564;7.272;2023-06-24T12:57:43;28.70;76.00
831;DHT22;397;50.564;7.272;2023-06-24T13:00:12;28.80;74.10
831;DHT22;397;50.564;7.272;2023-06-24T13:02:40;28.90;75.50
831;DHT22;397;50.564;7.272;2023-06-24T13:05:08;29.00;78.20
831;DHT22;397;50.564;7.272;2023-06-24T13:07:35;28.80;75.60
831;DHT22;397;50.564;7.272;2023-06-24T13:10:03;28.50;76.00
831;DHT22;397;50.564;7.272;2023-06-24T13:12:33;28.80;75.40
831;DHT22;397;50.564;7.272;2023-06-24T13:15:00;29.00;75.20
831;DHT22;397;50.564;7.272;2023-06-24T13:17:30;28.90;72.60
831;DHT22;397;50.564;7.272;2023-06-24T13:19:58;28.90;73.30
831;DHT22;397;50.564;7.272;2023-06-24T13:22:25;28.90;71.40
831;DHT22;397;50.564;7.272;2023-06-24T13:24:52;28.80;70.10
831;DHT22;397;50.564;7.272;2023-06-24T13:27:20;28.90;69.80
831;DHT22;397;50.564;7.272;2023-06-24T13:29:47;29.00;69.60
831;DHT22;397;50.564;7.272;2023-06-24T13:32:15;28.80;70.60
831;DHT22;397;50.564;7.272;2023-06-24T13:34:43;28.80;68.50
831;DHT22;397;50.564;7.272;2023-06-24T13:37:10;28.60;68.70
831;DHT22;397;50.564;7.272;2023-06-24T13:39:38;28.70;71.20
831;DHT22;397;50.564;7.272;2023-06-24T13:42:06;28.80;70.70
831;DHT22;397;50.564;7.272;2023-06-24T13:44:33;28.50;69.90
831;DHT22;397;50.564;7.272;2023-06-24T13:47:01;28.40;71.20
831;DHT22;397;50.564;7.272;2023-06-24T13:49:28;28.40;71.10
831;DHT22;397;50.564;7.272;2023-06-24T13:51:56;28.40;71.10
831;DHT22;397;50.564;7.272;2023-06-24T13:54:23;28.30;71.60
831;DHT22;397;50.564;7.272;2023-06-24T13:56:51;28.30;70.50
831;DHT22;397;50.564;7.272;2023-06-24T13:59:18;28.30;71.20
831;DHT22;397;50.564;7.272;2023-06-24T14:01:46;28.30;77.90
831;DHT22;397;50.564;7.272;2023-06-24T14:04:13;28.40;74.80
831;DHT22;397;50.564;7.272;2023-06-24T14:06:41;28.50;71.80
831;DHT22;397;50.564;7.272;2023-06-24T14:09:09;28.40;70.70
831;DHT22;397;50.564;7.272;2023-06-24T14:11:37;28.40;71.60
831;DHT22;397;50.564;7.272;2023-06-24T14:14:04;28.30;72.30
831;DHT22;397;50.564;7.272;2023-06-24T14:16:32;28.50;71.60
831;DHT22;397;50.564;7.272;2023-06-24T14:18:59;28.30;68.70
831;DHT22;397;50.564;7.272;2023-06-24T14:21:27;28.30;69.60
831;DHT22;397;50.564;7.272;2023-06-24T14:23:56;28.40;68.80
831;DHT22;397;50.564;7.272;2023-06-24T14:26:24;28.30;75.50
831;DHT22;397;50.564;7.272;2023-06-24T14:28:51;28.30;71.70
831;DHT22;397;50.564;7.272;2023-06-24T14:31:19;28.30;75.80
831;DHT22;397;50.564;7.272;2023-06-24T14:33:46;28.30;72.60
831;DHT22;397;50.564;7.272;2023-06-24T14:36:14;28.30;70.90
831;DHT22;397;50.564;7.272;2023-06-24T14:38:41;28.40;73.20
831;DHT22;397;50.564;7.272;2023-06-24T14:41:10;28.40;69.40
831;DHT22;397;50.564;7.272;2023-06-24T14:43:38;28.50;69.10
831;DHT22;397;50.564;7.272;2023-06-24T14:46:05;28.60;70.80
831;DHT22;397;50.564;7.272;2023-06-24T14:48:33;28.70;74.70
831;DHT22;397;50.564;7.272;2023-06-24T14:51:00;28.60;68.60
831;DHT22;397;50.564;7.272;2023-06-24T14:53:28;28.60;67.00
831;DHT22;397;50.564;7.272;2023-06-24T14:55:55;28.50;69.50
831;DHT22;397;50.564;7.272;2023-06-24T14:58:23;28.40;70.80
831;DHT22;397;50.564;7.272;2023-06-24T15:00:50;28.50;72.40
831;DHT22;397;50.564;7.272;2023-06-24T15:03:18;28.50;75.40
831;DHT22;397;50.564;7.272;2023-06-24T15:05:47;28.50;72.80
831;DHT22;397;50.564;7.272;2023-06-24T15:08:14;28.40;73.60
831;DHT22;397;50.564;7.272;2023-06-24T15:10:42;28.20;72.50
831;DHT22;397;50.564;7.272;2023-06-24T15:13:09;28.10;72.30
831;DHT22;397;50.564;7.272;2023-06-24T15:15:37;28.10;74.70
831;DHT22;397;50.564;7.272;2023-06-24T15:18:04;28.10;74.80
831;DHT22;397;50.564;7.272;2023-06-24T15:20:32;28.10;74.90
831;DHT22;397;50.564;7.272;2023-06-24T15:22:59;28.10;72.70
831;DHT22;397;50.564;7.272;2023-06-24T15:25:27;28.10;73.40
831;DHT22;397;50.564;7.272;2023-06-24T15:27:54;28.10;74.00
831;DHT22;397;50.564;7.272;2023-06-24T15:30:22;28.20;73.70
831;DHT22;397;50.564;7.272;2023-06-24T15:32:51;28.40;75.60
831;DHT22;397;50.564;7.272;2023-06-24T15:35:18;28.50;75.50
831;DHT22;397;50.564;7.272;2023-06-24T15:37:46;28.40;83.00
831;DHT22;397;50.564;7.272;2023-06-24T15:40:13;28.30;74.70
831;DHT22;397;50.564;7.272;2023-06-24T15:42:41;28.20;73.30
831;DHT22;397;50.564;7.272;2023-06-24T15:45:09;28.10;72.80
831;DHT22;397;50.564;7.272;2023-06-24T15:47:36;27.90;72.30
831;DHT22;397;50.564;7.272;2023-06-24T15:50:05;28.00;77.00
831;DHT22;397;50.564;7.272;2023-06-24T15:52:32;28.00;76.40
831;DHT22;397;50.564;7.272;2023-06-24T15:55:00;27.90;75.10
831;DHT22;397;50.564;7.272;2023-06-24T15:57:27;27.90;73.80
831;DHT22;397;50.564;7.272;2023-06-24T15:59:55;27.80;73.10
831;DHT22;397;50.564;7.272;2023-06-24T16:02:22;27.80;72.10
831;DHT22;397;50.564;7.272;2023-06-24T16:04:50;27.80;73.80
831;DHT22;397;50.564;7.272;2023-06-24T16:07:17;27.80;72.40
831;DHT22;397;50.564;7.272;2023-06-24T16:09:45;27.80;74.70
831;DHT22;397;50.564;7.272;2023-06-24T16:12:12;27.80;74.60
831;DHT22;397;50.564;7.272;2023-06-24T16:14:41;27.80;74.00
831;DHT22;397;50.564;7.272;2023-06-24T16:17:08;27.80;73.40
831;DHT22;397;50.564;7.272;2023-06-24T16:19:35;27.80;76.70
831;DHT22;397;50.564;7.272;2023-06-24T16:22:03;27.80;78.90
831;DHT22;397;50.564;7.272;2023-06-24T16:24:31;27.80;75.80
831;DHT22;397;50.564;7.272;2023-06-24T16:26:58;27.70;74.60
831;DHT22;397;50.564;7.272;2023-06-24T16:29:26;27.70;73.80
831;DHT22;397;50.564;7.272;2023-06-24T16:31:53;27.70;73.60
831;DHT22;397;50.564;7.272;2023-06-24T16:34:21;27.70;75.30
831;DHT22;397;50.564;7.272;2023-06-24T16:36:48;27.80;77.00
831;DHT22;397;50.564;7.272;2023-06-24T16:39:16;27.80;74.90
831;DHT22;397;50.564;7.272;2023-06-24T16:41:44;27.70;74.40
831;DHT22;397;50.564;7.272;2023-06-24T16:44:12;27.70;76.00
831;DHT22;397;50.564;7.272;2023-06-24T16:46:39;27.70;77.30
831;DHT22;397;50.564;7.272;2023-06-24T16:49:07;27.70;76.60
831;DHT22;397;50.564;7.272;2023-06-24T16:51:34;27.70;75.20